Time;durP1;ratioP1;P1;durP2;ratioP2;P2;SDS_P1;SDS_P2;PMS_P1;PMS_P2;Temp;Humidity;BMP_temperature;BMP_pressure;BME280_temperature;BME280_humidity;BME280_pressure;Samples;Min_cycle;Max_cycle;Signal;HPM_P1;HPM_P2
2022/05/23 00:00:00;;;;;;;1.83;1.50;;;16.10;99.90;;;;;;5064653;28;20257;-81
2022/05/23 00:02:28;;;;;;;4.53;1.90;;;16.10;99.90;;;;;;5057000;28;20261;-80
2022/05/23 00:04:55;;;;;;;2.40;1.60;;;16.20;99.90;;;;;;5070568;28;20302;-80
2022/05/23 00:07:26;;;;;;;2.90;1.87;;;16.20;99.90;;;;;;5060271;28;20204;-80
2022/05/23 00:09:52;;;;;;;2.50;1.70;;;16.10;99.90;;;;;;5050128;28;20550;-80
2022/05/23 00:12:20;;;;;;;2.00;1.70;;;16.10;99.90;;;;;;5054146;28;20270;-81
2022/05/23 00:14:46;;;;;;;2.13;1.67;;;16.10;99.90;;;;;;5053787;28;20207;-80
2022/05/23 00:17:14;;;;;;;1.73;1.63;;;16.10;99.90;;;;;;5065212;28;20249;-83
2022/05/23 00:19:42;;;;;;;2.17;1.77;;;16.10;99.90;;;;;;5068536;28;20235;-82
2022/05/23 00:22:09;;;;;;;1.63;1.53;;;16.10;99.90;;;;;;5057646;28;20203;-83
2022/05/23 00:24:36;;;;;;;2.77;1.63;;;16.10;99.90;;;;;;5057732;28;20204;-81
2022/05/23 00:27:04;;;;;;;2.47;1.80;;;16.10;99.90;;;;;;5065500;28;20239;-82
2022/05/23 00:29:31;;;;;;;3.00;1.80;;;16.10;99.90;;;;;;5070019;28;20215;-82
2022/05/23 00:37:28;;;;;;;2.67;1.80;;;16.10;99.90;;;;;;5052502;28;21000;-83
2022/05/23 00:39:55;;;;;;;2.37;1.80;;;16.00;99.90;;;;;;5059522;28;20286;-82
2022/05/23 00:45:14;;;;;;;4.30;1.93;;;16.00;99.90;;;;;;5052565;28;20223;-82
2022/05/23 00:47:40;;;;;;;3.03;1.90;;;16.00;99.90;;;;;;5055225;28;20208;-82
2022/05/23 00:50:10;;;;;;;2.70;2.00;;;15.90;99.90;;;;;;5051444;28;20613;-82
2022/05/23 00:52:43;;;;;;;2.57;1.83;;;16.00;99.90;;;;;;5067789;28;20278;-85
2022/05/23 00:55:16;;;;;;;4.73;2.13;;;15.90;99.90;;;;;;5057360;28;20263;-83
2022/05/23 00:57:46;;;;;;;2.13;1.93;;;15.90;99.90;;;;;;5053790;28;20270;-82
2022/05/23 01:00:15;;;;;;;2.10;1.90;;;15.90;99.90;;;;;;5067249;28;20222;-82
2022/05/23 01:02:44;;;;;;;3.80;2.00;;;15.90;99.90;;;;;;5049724;28;20208;-82
2022/05/23 01:05:12;;;;;;;2.83;1.83;;;15.80;99.90;;;;;;5049893;28;20254;-82
2022/05/23 01:07:39;;;;;;;2.27;2.07;;;15.80;99.90;;;;;;5050248;28;20212;-82
2022/05/23 01:10:09;;;;;;;2.40;1.83;;;15.80;99.90;;;;;;5060731;28;20207;-84
2022/05/23 01:12:37;;;;;;;2.30;1.87;;;15.80;99.90;;;;;;5054209;28;20196;-83
2022/05/23 01:15:05;;;;;;;2.47;1.90;;;15.80;99.90;;;;;;5057122;28;20335;-82
2022/05/23 01:17:32;;;;;;;2.20;2.03;;;15.80;99.90;;;;;;5068935;28;20207;-79
2022/05/23 01:19:59;;;;;;;3.03;2.00;;;15.70;99.90;;;;;;5056573;28;20577;-80
2022/05/23 01:22:35;;;;;;;2.43;2.10;;;15.70;99.90;;;;;;5061061;28;20214;-80
2022/05/23 01:25:08;;;;;;;2.53;1.83;;;15.70;99.90;;;;;;5059238;28;20653;-81
2022/05/23 01:27:37;;;;;;;4.13;1.90;;;15.70;99.90;;;;;;5055513;28;20204;-78
2022/05/23 01:30:05;;;;;;;2.33;2.10;;;15.70;99.90;;;;;;5050193;28;20214;-79
2022/05/23 01:32:31;;;;;;;3.97;1.93;;;15.70;99.90;;;;;;5060345;28;20243;-78
2022/05/23 01:34:58;;;;;;;3.73;2.00;;;15.70;99.90;;;;;;5056055;28;20208;-78
2022/05/23 01:37:26;;;;;;;2.50;2.03;;;15.70;99.90;;;;;;5054275;28;20204;-77
2022/05/23 01:39:52;;;;;;;2.20;2.00;;;15.70;99.90;;;;;;5061572;28;20203;-77
2022/05/23 01:42:19;;;;;;;2.30;2.10;;;15.70;99.90;;;;;;5066426;28;20265;-82
2022/05/23 01:44:47;;;;;;;2.13;2.03;;;15.70;99.90;;;;;;5061027;28;20270;-82
2022/05/23 01:47:17;;;;;;;2.23;2.03;;;15.60;99.90;;;;;;5047503;28;20722;-81
2022/05/23 01:49:44;;;;;;;4.23;2.17;;;15.60;99.90;;;;;;5051634;28;20222;-81
2022/05/23 01:52:12;;;;;;;2.53;2.33;;;15.60;99.90;;;;;;5048618;28;20250;-82
2022/05/23 01:54:39;;;;;;;2.07;1.97;;;15.60;99.90;;;;;;5056799;28;20212;-83
2022/05/23 01:57:08;;;;;;;2.40;2.20;;;15.60;99.90;;;;;;5051910;28;20666;-82
2022/05/23 02:02:21;;;;;;;2.40;2.20;;;15.50;99.90;;;;;;5054621;28;20211;-80
2022/05/23 02:04:48;;;;;;;2.77;1.93;;;15.50;99.90;;;;;;5048726;28;20208;-80
2022/05/23 02:07:15;;;;;;;2.10;2.00;;;15.50;99.90;;;;;;5058528;28;20223;-80
2022/05/23 02:09:43;;;;;;;3.70;2.63;;;15.50;99.90;;;;;;5067012;28;20211;-80
2022/05/23 02:12:11;;;;;;;3.27;2.37;;;15.40;99.90;;;;;;5062266;28;20204;-80
2022/05/23 02:14:39;;;;;;;2.77;2.50;;;15.40;99.90;;;;;;5065142;28;20726;-81
2022/05/23 02:17:09;;;;;;;2.27;2.03;;;15.40;99.90;;;;;;5061263;28;20321;-80
2022/05/23 02:19:37;;;;;;;3.47;2.50;;;15.40;99.90;;;;;;5049658;28;20825;-80
2022/05/23 02:22:06;;;;;;;2.37;2.17;;;15.40;99.90;;;;;;5064526;28;20207;-80
2022/05/23 02:24:32;;;;;;;3.23;2.53;;;15.40;99.90;;;;;;5062778;28;20262;-80
2022/05/23 02:26:59;;;;;;;3.40;2.40;;;15.40;99.90;;;;;;5056278;28;20231;-80
2022/05/23 02:29:26;;;;;;;3.00;2.23;;;15.30;99.90;;;;;;5063489;28;20219;-80
2022/05/23 02:31:53;;;;;;;2.50;2.30;;;15.30;99.90;;;;;;5055859;28;20269;-81
2022/05/23 02:34:20;;;;;;;2.57;2.37;;;15.20;99.90;;;;;;5048147;28;20213;-81
2022/05/23 02:36:49;;;;;;;2.50;1.93;;;15.30;99.90;;;;;;5054845;28;20211;-81
2022/05/23 02:39:16;;;;;;;2.77;2.57;;;15.20;99.90;;;;;;5050373;28;20754;-81
2022/05/23 02:41:42;;;;;;;2.67;2.30;;;15.10;99.90;;;;;;5049793;28;20718;-80
2022/05/23 02:44:10;;;;;;;2.57;2.37;;;15.10;99.90;;;;;;5065471;28;20200;-80
2022/05/23 02:46:37;;;;;;;4.00;2.33;;;15.10;99.90;;;;;;5058837;28;20226;-80
2022/05/23 02:49:03;;;;;;;3.20;2.47;;;15.10;99.90;;;;;;5065996;28;22070;-81
2022/05/23 02:51:30;;;;;;;2.80;2.60;;;15.10;99.90;;;;;;5066256;28;20207;-82
2022/05/23 02:53:58;;;;;;;2.73;2.40;;;15.10;99.90;;;;;;5068110;28;20253;-83
2022/05/23 02:56:25;;;;;;;3.87;2.60;;;15.10;99.90;;;;;;5055368;28;20219;-83
2022/05/23 02:58:51;;;;;;;3.07;2.43;;;15.10;99.90;;;;;;5068254;28;20292;-83
2022/05/23 03:01:19;;;;;;;2.63;2.33;;;15.10;99.90;;;;;;5065602;28;20298;-83
2022/05/23 03:03:45;;;;;;;2.60;2.40;;;15.10;99.90;;;;;;5069179;28;20239;-83
2022/05/23 03:06:11;;;;;;;2.53;2.33;;;15.10;99.90;;;;;;5062608;28;20305;-83
2022/05/23 03:08:39;;;;;;;3.07;2.60;;;15.10;99.90;;;;;;5057409;28;20200;-76
2022/05/23 03:11:08;;;;;;;2.90;2.70;;;15.10;99.90;;;;;;5050045;28;20208;-73
2022/05/23 03:13:35;;;;;;;2.93;2.47;;;15.10;99.90;;;;;;5053673;28;20208;-74
2022/05/23 03:16:10;;;;;;;2.80;2.60;;;15.00;99.90;;;;;;5064637;28;20623;-74
2022/05/23 03:18:36;;;;;;;3.13;2.50;;;15.00;99.90;;;;;;5062215;28;20632;-73
2022/05/23 03:21:08;;;;;;;4.90;2.73;;;15.10;99.90;;;;;;5050815;28;20200;-74
2022/05/23 03:29:09;;;;;;;4.20;2.80;;;15.00;99.90;;;;;;5059380;28;20222;-74
2022/05/23 03:31:37;;;;;;;4.53;2.70;;;15.00;99.90;;;;;;5060169;28;20245;-75
2022/05/23 03:34:04;;;;;;;3.27;2.50;;;15.00;99.90;;;;;;5059280;28;20203;-75
2022/05/23 03:36:31;;;;;;;2.93;2.73;;;14.90;99.90;;;;;;5060377;28;20248;-75
2022/05/23 03:38:57;;;;;;;2.93;2.77;;;15.00;99.90;;;;;;5072211;28;20896;-75
2022/05/23 03:41:26;;;;;;;2.97;2.77;;;15.00;99.90;;;;;;5053796;28;20234;-75
2022/05/23 03:43:52;;;;;;;5.23;2.77;;;15.00;99.90;;;;;;5053313;28;20277;-75
2022/05/23 03:46:20;;;;;;;3.27;3.03;;;15.10;99.90;;;;;;5049676;28;20254;-75
2022/05/23 03:48:46;;;;;;;3.30;3.00;;;15.00;99.90;;;;;;5051565;28;20211;-75
2022/05/23 03:51:13;;;;;;;4.13;2.90;;;15.00;99.90;;;;;;5050408;28;20269;-75
2022/05/23 03:53:40;;;;;;;3.57;2.80;;;15.00;99.90;;;;;;5063333;28;20577;-74
2022/05/23 03:56:07;;;;;;;3.93;3.10;;;15.10;99.90;;;;;;5051937;28;20208;-83
2022/05/23 03:58:35;;;;;;;4.77;3.50;;;15.10;99.90;;;;;;5055998;28;20929;-82
2022/05/23 04:01:09;;;;;;;3.23;2.90;;;15.10;99.90;;;;;;5059785;28;20305;-81
2022/05/23 04:03:36;;;;;;;4.37;3.17;;;15.10;99.90;;;;;;5067085;28;20196;-81
2022/05/23 04:06:06;;;;;;;4.00;3.00;;;15.10;99.90;;;;;;5059812;28;20291;-82
2022/05/23 04:08:33;;;;;;;3.13;2.93;;;15.10;99.90;;;;;;5049652;28;20262;-81
2022/05/23 04:11:02;;;;;;;2.93;2.73;;;15.10;99.90;;;;;;5050189;28;20204;-82
2022/05/23 04:13:31;;;;;;;3.27;2.97;;;15.10;99.90;;;;;;5058100;28;20228;-81
2022/05/23 04:15:59;;;;;;;3.83;2.90;;;15.10;99.90;;;;;;5054820;28;20236;-83
2022/05/23 04:18:26;;;;;;;4.67;3.13;;;15.10;99.90;;;;;;5060481;28;20212;-83
2022/05/23 04:20:52;;;;;;;3.70;3.10;;;15.10;99.90;;;;;;5062939;28;20265;-82
2022/05/23 04:23:19;;;;;;;3.60;2.60;;;15.20;99.90;;;;;;5056266;28;20270;-84
2022/05/23 04:25:49;;;;;;;2.97;2.67;;;15.20;99.90;;;;;;5065638;28;20200;-82
2022/05/23 04:28:17;;;;;;;3.70;3.00;;;15.20;99.90;;;;;;5062485;28;20332;-84
2022/05/23 04:30:45;;;;;;;2.93;2.73;;;15.20;99.90;;;;;;5063375;28;20706;-85
2022/05/23 04:35:59;;;;;;;4.20;3.30;;;15.20;99.90;;;;;;5051518;28;20214;-80
2022/05/23 04:38:26;;;;;;;4.63;3.20;;;15.20;99.90;;;;;;5069387;28;20242;-82
2022/05/23 04:40:53;;;;;;;4.23;3.00;;;15.30;99.90;;;;;;5066331;28;20298;-83
2022/05/23 04:43:19;;;;;;;2.87;2.67;;;15.30;99.90;;;;;;5062003;28;20199;-82
2022/05/23 04:45:46;;;;;;;3.07;2.77;;;15.30;99.90;;;;;;5068773;28;20208;-83
2022/05/23 04:50:59;;;;;;;3.47;3.10;;;15.30;99.90;;;;;;5064398;28;20206;-79
2022/05/23 04:53:25;;;;;;;2.97;2.77;;;15.30;99.90;;;;;;5067594;28;20332;-80
2022/05/23 04:55:52;;;;;;;3.17;2.87;;;15.30;99.90;;;;;;5069245;28;20261;-80
2022/05/23 04:58:19;;;;;;;4.77;2.67;;;15.30;99.90;;;;;;5067622;28;20239;-80
2022/05/23 05:00:45;;;;;;;3.60;2.70;;;15.30;99.90;;;;;;5061259;28;20351;-79
2022/05/23 05:03:13;;;;;;;2.87;2.67;;;15.30;99.90;;;;;;5053078;28;20673;-80
2022/05/23 05:05:40;;;;;;;3.63;2.67;;;15.40;99.90;;;;;;5048821;28;20269;-78
2022/05/23 05:08:07;;;;;;;3.77;2.47;;;15.30;99.90;;;;;;5054962;28;20223;-76
2022/05/23 05:10:34;;;;;;;4.27;2.90;;;15.40;99.90;;;;;;5048891;28;20349;-78
2022/05/23 05:13:00;;;;;;;2.70;2.50;;;15.40;99.90;;;;;;5053635;28;20266;-79
2022/05/23 05:15:29;;;;;;;4.10;2.87;;;15.40;99.90;;;;;;5048687;28;20211;-78
2022/05/23 05:17:55;;;;;;;2.70;2.50;;;15.40;99.90;;;;;;5053593;28;20276;-76
2022/05/23 05:20:24;;;;;;;2.70;2.50;;;15.40;99.90;;;;;;5052323;28;20207;-78
2022/05/23 05:22:52;;;;;;;2.77;2.37;;;15.40;99.90;;;;;;5067789;28;20207;-78
2022/05/23 05:25:19;;;;;;;2.80;2.40;;;15.40;99.90;;;;;;5068257;28;20570;-78
2022/05/23 05:27:46;;;;;;;2.57;2.37;;;15.40;99.90;;;;;;5058898;28;20239;-78
2022/05/23 05:30:16;;;;;;;2.80;2.20;;;15.40;99.90;;;;;;5059581;28;20573;-79
2022/05/23 05:32:47;;;;;;;2.17;1.97;;;15.50;99.90;;;;;;5047794;28;21045;-79
2022/05/23 05:35:19;;;;;;;4.37;2.33;;;15.50;99.90;;;;;;5055032;28;20254;-79
2022/05/23 05:37:50;;;;;;;2.33;2.20;;;15.50;99.90;;;;;;5061192;28;20203;-81
2022/05/23 05:40:22;;;;;;;2.27;2.17;;;15.50;99.90;;;;;;5060533;28;20274;-79
2022/05/23 05:42:55;;;;;;;2.00;1.90;;;15.60;99.90;;;;;;5061207;28;20677;-79
2022/05/23 05:45:29;;;;;;;3.50;2.23;;;15.60;99.90;;;;;;5052707;28;20367;-73
2022/05/23 05:47:56;;;;;;;1.90;1.80;;;15.60;99.90;;;;;;5051771;28;20216;-74
2022/05/23 05:50:26;;;;;;;1.70;1.60;;;15.60;99.90;;;;;;5053539;28;20242;-74
2022/05/23 05:52:59;;;;;;;2.33;1.90;;;15.60;99.90;;;;;;5054902;28;20200;-74
2022/05/23 05:55:26;;;;;;;1.60;1.50;;;15.70;99.90;;;;;;5057033;28;20196;-74
2022/05/23 05:57:52;;;;;;;4.80;1.60;;;15.70;99.90;;;;;;5053220;28;20969;-73
2022/05/23 06:00:20;;;;;;;1.87;1.73;;;15.70;99.90;;;;;;5053182;28;20208;-74
2022/05/23 06:02:49;;;;;;;1.77;1.67;;;15.70;99.90;;;;;;5060067;28;20286;-74
2022/05/23 06:05:15;;;;;;;1.83;1.73;;;15.70;99.90;;;;;;5060273;28;20291;-73
2022/05/23 06:13:15;;;;;;;2.43;2.00;;;15.80;99.90;;;;;;5061220;28;20652;-74
2022/05/23 06:15:41;;;;;;;1.73;1.60;;;15.80;99.90;;;;;;5052465;28;20212;-73
2022/05/23 06:18:08;;;;;;;4.47;1.83;;;15.90;99.90;;;;;;5056553;28;20208;-74
2022/05/23 06:20:35;;;;;;;1.83;1.73;;;15.90;99.90;;;;;;5059149;28;20262;-74
2022/05/23 06:23:02;;;;;;;1.93;1.80;;;15.90;99.90;;;;;;5056526;28;20200;-74
2022/05/23 06:25:31;;;;;;;2.27;1.70;;;15.90;99.90;;;;;;5048910;28;20258;-74
2022/05/23 06:27:58;;;;;;;2.20;2.00;;;16.00;99.90;;;;;;5060706;28;20982;-74
2022/05/23 06:30:25;;;;;;;2.87;1.70;;;16.00;99.90;;;;;;5058856;28;20265;-75
2022/05/23 06:32:52;;;;;;;1.80;1.70;;;16.00;99.90;;;;;;5055198;28;20879;-74
2022/05/23 06:35:20;;;;;;;2.47;2.03;;;16.10;99.90;;;;;;5052723;28;20195;-74
2022/05/23 06:37:46;;;;;;;3.97;1.97;;;16.10;99.90;;;;;;5061925;28;20238;-74
2022/05/23 06:40:15;;;;;;;2.67;1.83;;;16.10;99.90;;;;;;5049242;28;20232;-74
2022/05/23 06:42:45;;;;;;;3.27;2.10;;;16.20;99.90;;;;;;5062171;28;20199;-74
2022/05/23 06:45:12;;;;;;;2.90;2.03;;;16.20;99.90;;;;;;5056087;28;20208;-75
2022/05/23 06:47:39;;;;;;;2.07;1.80;;;16.20;99.90;;;;;;5055479;28;20606;-74
2022/05/23 06:50:07;;;;;;;1.83;1.73;;;16.30;99.90;;;;;;5053600;28;20834;-74
2022/05/23 06:52:34;;;;;;;2.03;1.80;;;16.30;99.90;;;;;;5062908;28;20575;-74
2022/05/23 06:55:01;;;;;;;1.87;1.43;;;16.40;99.90;;;;;;5051021;28;20239;-73
2022/05/23 06:57:28;;;;;;;2.37;1.60;;;16.50;99.90;;;;;;5054849;28;20625;-73
2022/05/23 06:59:56;;;;;;;2.77;1.80;;;16.50;99.90;;;;;;5054981;28;20195;-73
2022/05/23 07:02:23;;;;;;;2.77;1.57;;;16.50;99.90;;;;;;5053862;28;20212;-73
2022/05/23 07:13:02;;;;;;;1.90;1.23;;;16.60;99.90;;;;;;5047080;28;20206;-73
2022/05/23 07:15:35;;;;;;;2.30;1.40;;;16.70;99.90;;;;;;5053603;28;20207;-73
2022/05/23 07:18:03;;;;;;;1.97;1.40;;;16.70;99.90;;;;;;5062253;28;20204;-78
2022/05/23 07:20:29;;;;;;;2.40;1.43;;;16.80;99.90;;;;;;5059689;28;20200;-73
2022/05/23 07:22:56;;;;;;;1.47;1.37;;;16.80;99.90;;;;;;5058777;28;20208;-74
2022/05/23 07:25:23;;;;;;;2.20;1.87;;;16.90;99.90;;;;;;5053733;28;20200;-74
2022/05/23 07:27:49;;;;;;;3.87;1.50;;;17.00;99.90;;;;;;5055778;28;20965;-74
2022/05/23 07:30:16;;;;;;;4.17;1.67;;;17.00;99.90;;;;;;5054074;28;20203;-74
2022/05/23 07:32:44;;;;;;;3.83;1.73;;;17.10;99.90;;;;;;5056420;28;20291;-74
2022/05/23 07:35:11;;;;;;;1.53;1.43;;;17.10;99.90;;;;;;5054179;28;20231;-74
2022/05/23 07:37:38;;;;;;;3.10;1.50;;;17.20;99.90;;;;;;5051121;28;20682;-74
2022/05/23 07:40:06;;;;;;;2.07;1.63;;;17.20;99.90;;;;;;5050502;28;20220;-73
2022/05/23 07:42:32;;;;;;;4.70;1.53;;;17.20;99.90;;;;;;5056285;28;20245;-74
2022/05/23 07:44:59;;;;;;;2.80;1.47;;;17.20;99.90;;;;;;5059348;28;20204;-74
2022/05/23 07:47:26;;;;;;;3.93;1.70;;;17.30;99.90;;;;;;5057409;28;20266;-74
2022/05/23 07:49:54;;;;;;;1.50;1.50;;;17.30;99.90;;;;;;5059588;28;20295;-74
2022/05/23 07:52:20;;;;;;;1.90;1.70;;;17.30;99.90;;;;;;5060590;28;20277;-74
2022/05/23 08:00:34;;;;;;;1.47;1.37;;;17.40;99.90;;;;;;5054048;28;20200;-73
2022/05/23 08:03:03;;;;;;;2.10;1.40;;;17.50;99.90;;;;;;5051488;28;20232;-74
2022/05/23 08:05:31;;;;;;;3.20;1.80;;;17.50;99.90;;;;;;5059331;28;20726;-74
2022/05/23 08:07:58;;;;;;;3.23;1.47;;;17.60;99.90;;;;;;5052659;28;20274;-74
2022/05/23 08:10:25;;;;;;;1.20;1.10;;;17.60;99.90;;;;;;5052424;28;20196;-74
2022/05/23 08:12:55;;;;;;;3.83;1.70;;;17.70;99.90;;;;;;5060718;28;20204;-74
2022/05/23 08:15:23;;;;;;;2.23;1.70;;;17.70;99.90;;;;;;5061251;28;20195;-74
2022/05/23 08:17:50;;;;;;;1.40;1.30;;;17.70;99.90;;;;;;5063602;28;20219;-74
2022/05/23 08:20:17;;;;;;;1.57;1.30;;;17.80;99.90;;;;;;5068993;28;20203;-74
2022/05/23 08:22:51;;;;;;;1.33;1.20;;;17.80;99.90;;;;;;5057396;28;20617;-74
2022/05/23 08:25:19;;;;;;;2.53;1.40;;;17.80;99.90;;;;;;5059558;28;20623;-74
2022/05/23 08:27:45;;;;;;;2.70;1.50;;;17.90;99.90;;;;;;5063046;28;20267;-74
2022/05/23 08:30:13;;;;;;;1.53;1.40;;;18.00;99.90;;;;;;5062121;28;20578;-74
2022/05/23 08:32:39;;;;;;;1.53;1.20;;;18.00;99.90;;;;;;5052293;28;20201;-73
2022/05/23 08:35:08;;;;;;;1.10;1.00;;;18.00;99.90;;;;;;5066672;28;20257;-72
2022/05/23 08:37:35;;;;;;;1.80;1.00;;;18.10;99.90;;;;;;5062688;28;20219;-74
2022/05/23 08:40:03;;;;;;;2.50;1.60;;;18.20;99.90;;;;;;5048811;28;20725;-74
2022/05/23 08:42:34;;;;;;;2.27;1.47;;;18.20;99.90;;;;;;5064565;28;20200;-74
2022/05/23 08:45:08;;;;;;;2.73;1.37;;;18.30;99.90;;;;;;5065694;28;20642;-74
2022/05/23 08:47:41;;;;;;;1.27;1.17;;;18.30;99.90;;;;;;5061281;28;20318;-74
2022/05/23 08:50:14;;;;;;;1.80;1.27;;;18.40;99.90;;;;;;5064327;28;20195;-74
2022/05/23 08:52:46;;;;;;;2.50;1.50;;;18.50;99.90;;;;;;5060035;28;20193;-74
2022/05/23 08:55:19;;;;;;;1.00;1.00;;;18.50;99.90;;;;;;5053192;28;20208;-74
2022/05/23 08:57:52;;;;;;;1.53;1.43;;;18.50;99.90;;;;;;5048003;28;20230;-74
2022/05/23 09:00:24;;;;;;;2.67;1.20;;;18.60;99.90;;;;;;5048238;28;20242;-75
2022/05/23 09:02:55;;;;;;;2.57;1.40;;;18.70;99.90;;;;;;5052472;28;20204;-74
2022/05/23 09:05:29;;;;;;;2.13;1.20;;;18.70;99.50;;;;;;5059246;28;20628;-74
2022/05/23 09:07:59;;;;;;;1.13;1.00;;;18.70;98.80;;;;;;5055585;28;20212;-74
2022/05/23 09:10:32;;;;;;;1.73;1.30;;;18.80;99.20;;;;;;5060793;28;20200;-75
2022/05/23 09:12:58;;;;;;;1.20;0.90;;;18.90;99.30;;;;;;5056335;28;20200;-74
2022/05/23 09:15:25;;;;;;;1.60;1.07;;;18.90;98.40;;;;;;5056077;28;20199;-74
2022/05/23 09:17:55;;;;;;;1.90;1.00;;;19.00;98.30;;;;;;5055484;28;20714;-74
2022/05/23 09:20:32;;;;;;;1.97;1.20;;;19.00;97.80;;;;;;5055961;28;20539;-76
2022/05/23 09:23:02;;;;;;;1.10;0.90;;;19.10;97.80;;;;;;5060189;28;20297;-76
2022/05/23 09:25:30;;;;;;;3.57;1.13;;;19.10;98.00;;;;;;5056929;28;20195;-76
2022/05/23 09:28:10;;;;;;;1.50;1.13;;;19.10;97.20;;;;;;5054249;28;21044;-76
2022/05/23 09:30:40;;;;;;;1.43;1.00;;;19.20;97.50;;;;;;5057433;28;20218;-76
2022/05/23 09:33:11;;;;;;;2.33;1.20;;;19.30;97.80;;;;;;5062284;28;20261;-76
2022/05/23 09:35:51;;;;;;;1.30;1.20;;;19.30;97.70;;;;;;5058643;28;20190;-76
2022/05/23 09:38:20;;;;;;;7.27;1.17;;;19.40;97.40;;;;;;5056105;28;20934;-76
2022/05/23 09:40:48;;;;;;;1.73;1.07;;;19.40;97.20;;;;;;5061929;28;20642;-76
2022/05/23 09:49:09;;;;;;;1.10;1.00;;;19.60;97.00;;;;;;5054225;28;20277;-76
2022/05/23 09:51:50;;;;;;;1.33;1.00;;;19.60;96.90;;;;;;5057848;28;20214;-76
2022/05/23 09:54:20;;;;;;;3.00;0.97;;;19.60;96.70;;;;;;5047359;28;20196;-76
2022/05/23 09:56:49;;;;;;;3.10;1.10;;;19.70;96.50;;;;;;5048187;28;20219;-76
2022/05/23 09:59:36;;;;;;;1.87;1.23;;;19.80;96.90;;;;;;5053649;28;20501;-76
2022/05/23 10:02:05;;;;;;;2.80;1.13;;;19.90;96.60;;;;;;5051461;28;20696;-76
2022/05/23 10:04:41;;;;;;;1.00;1.00;;;19.90;96.10;;;;;;5058714;28;20204;-76
2022/05/23 10:07:21;;;;;;;1.67;1.00;;;20.00;96.10;;;;;;5053419;28;20212;-76
2022/05/23 10:09:57;;;;;;;1.77;1.20;;;20.00;96.10;;;;;;5046551;28;20219;-76
2022/05/23 10:12:28;;;;;;;2.43;1.20;;;20.10;96.10;;;;;;5047478;28;20198;-77
2022/05/23 10:15:05;;;;;;;2.73;1.30;;;20.20;96.40;;;;;;5058738;28;20651;-76
2022/05/23 10:17:35;;;;;;;1.27;1.13;;;20.30;96.50;;;;;;5061154;28;20202;-76
2022/05/23 10:20:18;;;;;;;1.40;1.20;;;20.40;96.00;;;;;;5058536;28;20211;-76
2022/05/23 10:22:54;;;;;;;1.50;1.10;;;20.40;96.00;;;;;;5045196;28;20200;-79
2022/05/23 10:25:21;;;;;;;2.03;0.90;;;20.40;95.90;;;;;;5046876;28;20271;-76
2022/05/23 10:27:59;;;;;;;2.10;0.90;;;20.50;96.10;;;;;;5047381;28;20250;-76
2022/05/23 10:30:31;;;;;;;2.70;1.40;;;20.50;95.30;;;;;;5046637;28;20650;-76
2022/05/23 10:33:03;;;;;;;0.90;0.90;;;20.50;94.50;;;;;;5046284;28;20956;-76
2022/05/23 10:35:35;;;;;;;1.67;1.30;;;20.50;94.70;;;;;;5046422;28;20647;-77
2022/05/23 10:43:42;;;;;;;1.40;1.27;;;20.80;94.70;;;;;;5046314;28;20669;-76
2022/05/23 10:46:12;;;;;;;1.27;1.13;;;20.80;94.60;;;;;;5048766;28;20246;-76
2022/05/23 10:48:46;;;;;;;2.17;1.10;;;20.90;94.50;;;;;;5055487;28;20317;-76
2022/05/23 10:51:25;;;;;;;1.80;1.10;;;20.90;94.00;;;;;;5052866;28;20274;-76
2022/05/23 10:54:06;;;;;;;1.27;1.13;;;21.00;94.30;;;;;;5063657;28;20221;-76
2022/05/23 10:56:52;;;;;;;1.17;0.90;;;21.10;94.70;;;;;;5054037;28;20609;-76
2022/05/23 10:59:25;;;;;;;1.87;1.40;;;21.10;94.30;;;;;;5056135;28;20281;-76
2022/05/23 11:02:04;;;;;;;1.60;1.17;;;21.10;94.10;;;;;;5053612;28;20198;-77
2022/05/23 11:04:42;;;;;;;2.40;1.33;;;21.20;94.30;;;;;;5057524;28;20191;-76
2022/05/23 11:07:31;;;;;;;2.67;1.13;;;21.10;93.70;;;;;;5056566;28;20203;-76
2022/05/23 11:10:02;;;;;;;1.63;1.20;;;21.10;94.20;;;;;;5046072;28;20216;-77
2022/05/23 11:12:39;;;;;;;1.33;0.97;;;21.20;94.40;;;;;;5046561;28;20643;-76
2022/05/23 11:15:22;;;;;;;1.60;1.00;;;21.20;94.50;;;;;;5053564;28;20195;-76
2022/05/23 11:17:55;;;;;;;1.50;1.30;;;21.30;94.40;;;;;;5058409;28;20603;-76
2022/05/23 11:20:27;;;;;;;2.50;1.10;;;21.30;94.30;;;;;;5057685;28;20199;-76
2022/05/23 11:22:59;;;;;;;1.30;1.20;;;21.30;94.10;;;;;;5058507;28;20262;-76
2022/05/23 11:25:30;;;;;;;1.83;1.10;;;21.40;94.10;;;;;;5058885;28;20421;-76
2022/05/23 11:33:46;;;;;;;1.90;1.00;;;21.50;93.50;;;;;;5071536;28;20199;-76
2022/05/23 11:36:24;;;;;;;1.33;1.10;;;21.60;93.70;;;;;;5070013;28;20661;-76
2022/05/23 11:38:52;;;;;;;1.23;1.00;;;21.60;93.80;;;;;;5070707;28;20290;-76
2022/05/23 11:41:31;;;;;;;1.80;1.30;;;21.70;93.50;;;;;;5064473;28;20235;-76
2022/05/23 11:43:58;;;;;;;1.37;1.10;;;21.80;93.30;;;;;;5051241;28;20207;-76
2022/05/23 11:47:06;;;;;;;3.88;1.13;;;22.00;93.00;;;;;;5051627;28;20662;-76
2022/05/23 11:49:43;;;;;;;1.75;1.00;;;22.00;93.00;;;;;;5050536;28;20220;-76
2022/05/23 11:52:22;;;;;;;2.30;1.20;;;22.10;92.80;;;;;;5050554;28;20215;-76
2022/05/23 11:54:49;;;;;;;2.20;1.13;;;22.20;93.20;;;;;;5050122;28;20262;-76
2022/05/23 11:57:35;;;;;;;1.53;0.90;;;22.20;93.00;;;;;;5050524;28;20220;-76
2022/05/23 12:00:28;;;;;;;1.38;1.13;;;22.20;92.90;;;;;;5049503;28;20192;-75
2022/05/23 12:03:16;;;;;;;1.30;1.00;;;22.20;92.80;;;;;;5056759;28;20254;-75
2022/05/23 12:05:44;;;;;;;1.20;1.10;;;22.20;92.20;;;;;;5049332;28;20611;-76
2022/05/23 12:08:32;;;;;;;3.05;1.38;;;22.20;92.10;;;;;;5050123;28;20242;-76
2022/05/23 12:11:02;;;;;;;3.63;0.93;;;22.30;92.30;;;;;;5050192;28;20303;-76
2022/05/23 12:13:40;;;;;;;2.93;1.30;;;22.40;92.30;;;;;;5050317;28;20287;-76
2022/05/23 12:16:27;;;;;;;2.80;1.20;;;22.50;92.40;;;;;;5050239;28;20262;-76
2022/05/23 12:19:21;;;;;;;4.83;1.20;;;22.70;92.50;;;;;;5066373;28;20204;-77
2022/05/23 12:21:50;;;;;;;3.33;1.60;;;22.70;91.40;;;;;;5054534;28;20254;-76
2022/05/23 12:24:28;;;;;;;2.50;1.00;;;22.80;92.20;;;;;;5049933;28;20262;-76
2022/05/23 12:26:57;;;;;;;2.78;0.93;;;23.00;92.00;;;;;;5058050;28;20198;-76
2022/05/23 12:29:34;;;;;;;2.28;1.05;;;23.20;91.50;;;;;;5052603;28;20293;-76
2022/05/23 12:32:24;;;;;;;1.55;1.00;;;23.40;91.40;;;;;;5050821;28;20196;-76
2022/05/23 12:34:55;;;;;;;2.75;1.17;;;23.60;91.70;;;;;;5059968;28;20250;-76
2022/05/23 12:37:30;;;;;;;1.30;1.05;;;23.70;91.80;;;;;;5058099;28;20199;-76
2022/05/23 12:40:03;;;;;;;2.90;1.40;;;23.70;91.50;;;;;;5056621;28;20203;-76
2022/05/23 12:42:41;;;;;;;2.05;1.13;;;23.80;91.30;;;;;;5049784;28;20212;-75
2022/05/23 12:45:30;;;;;;;1.15;1.00;;;23.80;91.50;;;;;;5049760;28;20192;-76
2022/05/23 12:48:14;;;;;;;2.13;1.25;;;23.80;90.80;;;;;;5065649;28;20281;-76
2022/05/23 12:50:53;;;;;;;1.13;1.00;;;23.80;90.20;;;;;;5066262;28;20277;-76
2022/05/23 12:53:34;;;;;;;1.85;1.27;;;23.70;90.40;;;;;;5049283;28;20196;-76
2022/05/23 12:56:17;;;;;;;2.65;1.60;;;23.60;90.70;;;;;;5049413;28;20197;-75
2022/05/23 12:59:20;;;;;;;4.00;1.10;;;23.50;90.00;;;;;;5058965;28;20200;-76
2022/05/23 13:01:51;;;;;;;4.88;1.25;;;23.40;90.00;;;;;;5056171;28;20200;-75
2022/05/23 13:04:21;;;;;;;2.53;1.40;;;23.40;89.60;;;;;;5050217;28;20212;-76
2022/05/23 13:06:58;;;;;;;1.23;1.20;;;23.50;90.10;;;;;;5049336;28;20199;-76
2022/05/23 13:09:34;;;;;;;4.18;1.33;;;23.70;90.10;;;;;;5059066;28;21795;-76
2022/05/23 13:12:07;;;;;;;2.00;1.40;;;23.90;90.70;;;;;;5058185;28;20188;-76
2022/05/23 13:14:50;;;;;;;1.50;1.17;;;24.10;90.40;;;;;;5057400;28;20607;-76
2022/05/23 13:17:29;;;;;;;2.88;1.50;;;24.20;90.10;;;;;;5052767;28;20210;-77
2022/05/23 13:22:42;;;;;;;1.40;1.15;;;24.30;89.70;;;;;;5048012;28;20203;-76
2022/05/23 13:25:09;;;;;;;2.35;1.50;;;24.10;89.60;;;;;;5047938;28;20226;-76
2022/05/23 13:27:38;;;;;;;3.10;1.10;;;24.00;88.90;;;;;;5048204;28;20272;-76
2022/05/23 13:30:07;;;;;;;2.70;1.40;;;23.90;88.50;;;;;;5047203;28;20982;-76
2022/05/23 13:32:35;;;;;;;1.58;1.48;;;24.00;89.00;;;;;;5047447;28;20207;-76
2022/05/23 13:35:15;;;;;;;3.08;1.15;;;24.00;89.30;;;;;;5050618;28;20207;-76
2022/05/23 13:37:43;;;;;;;2.70;1.55;;;24.10;89.10;;;;;;5055603;28;20673;-76
2022/05/23 13:40:13;;;;;;;3.17;1.50;;;24.10;90.00;;;;;;5056591;28;20224;-76
2022/05/23 13:42:40;;;;;;;2.58;1.25;;;24.20;89.90;;;;;;5053249;28;20211;-76
2022/05/23 13:45:13;;;;;;;3.05;1.15;;;24.40;89.50;;;;;;5054205;28;20203;-76
2022/05/23 13:47:44;;;;;;;1.40;1.30;;;24.40;88.90;;;;;;5055057;28;20207;-76
2022/05/23 13:50:16;;;;;;;4.45;1.73;;;24.60;88.20;;;;;;5053585;28;20220;-76
2022/05/23 13:52:50;;;;;;;3.22;1.40;;;24.70;87.00;;;;;;5057553;28;20254;-76
2022/05/23 13:55:20;;;;;;;2.08;1.20;;;24.80;87.10;;;;;;5053193;28;20310;-76
2022/05/23 13:57:53;;;;;;;2.85;1.45;;;24.90;85.90;;;;;;5055973;28;20216;-76
2022/05/23 14:00:23;;;;;;;1.77;1.48;;;24.80;86.30;;;;;;5054562;28;20246;-76
2022/05/23 14:02:54;;;;;;;2.03;1.45;;;24.60;86.30;;;;;;5056015;28;20191;-76
2022/05/23 14:05:22;;;;;;;3.05;1.73;;;24.40;87.20;;;;;;5055039;28;20192;-76